Time;durP1;ratioP1;P1;durP2;ratioP2;P2;SDS_P1;SDS_P2;PMS_P1;PMS_P2;Temp;Humidity;BMP_temperature;BMP_pressure;BME280_temperature;BME280_humidity;BME280_pressure;Samples;Min_cycle;Max_cycle;Signal;HPM_P1;HPM_P2
2023/02/02 00:00:14;;;;;;;5.72;0.82;;;;;;;4.86;100.00;101203.50;6275759;28;20057;-73
2023/02/02 00:03:15;;;;;;;5.22;1.17;;;;;;;4.87;100.00;101210.44;6275804;28;20040;-73
2023/02/02 00:06:17;;;;;;;13.25;1.65;;;;;;;4.88;100.00;101219.97;6270578;28;20049;-73
2023/02/02 00:09:20;;;;;;;2.78;1.05;;;;;;;4.82;100.00;101218.34;6275557;28;20049;-73
2023/02/02 00:12:22;;;;;;;13.45;1.67;;;;;;;4.78;100.00;101201.94;6254732;28;20045;-73
2023/02/02 00:15:23;;;;;;;11.82;1.92;;;;;;;4.76;100.00;101205.44;6251897;28;20060;-73
2023/02/02 00:18:24;;;;;;;4.05;0.98;;;;;;;4.78;100.00;101209.75;6251011;28;20144;-73
2023/02/02 00:21:26;;;;;;;6.97;1.70;;;;;;;4.82;100.00;101220.97;6250752;28;20050;-73
2023/02/02 00:24:29;;;;;;;5.50;1.17;;;;;;;4.78;100.00;101206.28;6250644;28;20053;-73
2023/02/02 00:27:30;;;;;;;4.47;1.17;;;;;;;4.75;100.00;101224.56;6250716;28;20057;-73
2023/02/02 00:30:32;;;;;;;4.78;1.00;;;;;;;4.73;100.00;101213.34;6250251;28;20053;-73
2023/02/02 00:33:33;;;;;;;6.90;1.25;;;;;;;4.66;100.00;101210.00;6251713;28;20458;-73
2023/02/02 00:36:34;;;;;;;16.77;1.88;;;;;;;4.68;100.00;101204.75;6250292;28;20424;-73
2023/02/02 00:39:37;;;;;;;6.00;1.23;;;;;;;4.69;100.00;101214.31;6250648;28;20049;-73
2023/02/02 00:42:38;;;;;;;13.95;2.30;;;;;;;4.74;100.00;101218.50;6250282;28;20046;-73
2023/02/02 00:45:40;;;;;;;5.47;1.02;;;;;;;4.70;100.00;101211.66;6251760;28;20059;-73
2023/02/02 00:48:41;;;;;;;7.15;1.67;;;;;;;4.64;100.00;101214.41;6250080;28;20045;-73
2023/02/02 00:51:43;;;;;;;3.17;0.75;;;;;;;4.63;100.00;101214.41;6250578;28;20064;-73
2023/02/02 00:54:45;;;;;;;3.85;0.82;;;;;;;4.63;100.00;101207.47;6254162;28;20049;-74
2023/02/02 00:57:47;;;;;;;5.28;0.95;;;;;;;4.66;100.00;101209.16;6255447;28;20049;-73
2023/02/02 01:00:48;;;;;;;5.03;1.15;;;;;;;4.70;100.00;101218.59;6255130;28;20451;-73
2023/02/02 01:03:50;;;;;;;6.72;1.30;;;;;;;4.74;100.00;101213.31;6255543;28;20041;-73
2023/02/02 01:06:52;;;;;;;5.03;1.45;;;;;;;4.77;100.00;101221.06;6255173;28;20049;-74
2023/02/02 01:09:54;;;;;;;3.20;0.85;;;;;;;4.76;100.00;101210.66;6254932;28;20049;-74
2023/02/02 01:12:56;;;;;;;7.05;1.13;;;;;;;4.76;100.00;101224.53;6255148;28;20045;-73
2023/02/02 01:15:58;;;;;;;5.35;0.80;;;;;;;4.75;100.00;101216.75;6255763;28;20057;-72
2023/02/02 01:18:59;;;;;;;4.18;1.15;;;;;;;4.78;100.00;101227.13;6255013;28;20042;-73
2023/02/02 01:22:01;;;;;;;5.30;0.98;;;;;;;4.71;100.00;101233.34;6254454;28;20060;-73
2023/02/02 01:25:04;;;;;;;9.18;1.73;;;;;;;4.67;100.00;101229.09;6254731;28;20490;-73
2023/02/02 01:28:05;;;;;;;8.15;1.20;;;;;;;4.60;100.00;101232.72;6254508;28;20432;-74
2023/02/02 01:31:09;;;;;;;9.10;1.50;;;;;;;4.53;100.00;101232.81;6254610;28;20060;-73
2023/02/02 01:34:10;;;;;;;4.35;1.42;;;;;;;4.50;100.00;101256.34;6254179;28;20046;-73
2023/02/02 01:37:11;;;;;;;6.32;1.20;;;;;;;4.44;100.00;101253.84;6254444;28;20061;-73
2023/02/02 01:40:14;;;;;;;9.10;1.75;;;;;;;4.48;100.00;101252.03;6254022;28;20355;-73
2023/02/02 01:43:22;;;;;;;2.20;0.82;;;;;;;4.46;100.00;101265.09;6254575;28;20046;-73
2023/02/02 01:46:26;;;;;;;12.88;1.92;;;;;;;4.44;100.00;101263.38;6255728;28;20054;-73
2023/02/02 01:49:28;;;;;;;6.30;1.08;;;;;;;4.45;100.00;101255.56;6254185;28;20045;-73
2023/02/02 01:52:31;;;;;;;10.25;2.20;;;;;;;4.42;100.00;101258.22;6253881;28;20060;-72
2023/02/02 01:55:37;;;;;;;4.38;1.02;;;;;;;4.44;100.00;101263.38;6254271;28;20048;-73
2023/02/02 01:58:41;;;;;;;3.25;0.77;;;;;;;4.37;100.00;101269.63;6253810;28;20049;-73
2023/02/02 02:01:43;;;;;;;7.30;0.82;;;;;;;4.33;100.00;101267.06;6253856;28;20451;-73
2023/02/02 02:04:45;;;;;;;2.75;0.82;;;;;;;4.28;100.00;101284.50;6253606;28;20049;-73
2023/02/02 02:07:49;;;;;;;6.80;1.30;;;;;;;4.30;100.00;101284.47;6254056;28;20364;-73
2023/02/02 02:10:51;;;;;;;7.40;0.80;;;;;;;4.28;100.00;101294.06;6272352;28;20056;-73
2023/02/02 02:17:32;;;;;;;8.65;0.73;;;;;;;4.24;100.00;101300.19;6264816;28;20045;-73
2023/02/02 02:28:52;;;;;;;11.98;1.58;;;;;;;4.11;100.00;101309.97;6264154;28;20053;-73
2023/02/02 02:32:09;;;;;;;6.32;0.73;;;;;;;4.08;100.00;101316.06;6278317;28;20059;-73
2023/02/02 02:35:19;;;;;;;3.33;1.00;;;;;;;4.14;100.00;101307.31;6277556;28;20357;-74
2023/02/02 02:38:29;;;;;;;6.07;1.00;;;;;;;4.14;100.00;101314.25;6277811;28;20354;-73
2023/02/02 02:41:35;;;;;;;5.97;1.05;;;;;;;4.09;100.00;101322.16;6277637;28;20044;-73
2023/02/02 02:44:36;;;;;;;12.73;0.93;;;;;;;4.13;100.00;101321.19;6277589;28;20423;-73
2023/02/02 02:47:40;;;;;;;12.70;2.17;;;;;;;4.06;100.00;101325.66;6276909;28;20052;-73
2023/02/02 02:50:42;;;;;;;5.60;1.13;;;;;;;4.10;100.00;101323.00;6277614;28;20049;-73
2023/02/02 02:53:43;;;;;;;4.07;0.65;;;;;;;4.08;100.00;101326.47;6277505;28;20056;-73
2023/02/02 02:56:59;;;;;;;7.60;0.93;;;;;;;4.04;100.00;101324.81;6277618;28;20060;-73
2023/02/02 03:00:09;;;;;;;4.03;0.82;;;;;;;4.07;100.00;101322.16;6277323;28;20471;-73
2023/02/02 03:03:18;;;;;;;;;;;;;;;4.02;100.00;101317.91;6277582;28;20048;-73
2023/02/02 03:06:22;;;;;;;;;;;;;;;4.02;100.00;101333.53;6277756;28;19931;-73
2023/02/02 03:09:25;;;;;;;8.73;1.38;;;;;;;4.01;100.00;101327.47;6276944;28;20223;-73
2023/02/02 03:12:27;;;;;;;5.72;1.20;;;;;;;4.04;100.00;101336.94;6277017;28;20052;-73
2023/02/02 03:15:28;;;;;;;9.25;1.30;;;;;;;4.02;100.00;101339.59;6275737;28;20041;-73
2023/02/02 03:18:32;;;;;;;17.50;1.75;;;;;;;4.02;100.00;101333.53;6275906;28;20053;-73
2023/02/02 03:21:34;;;;;;;5.35;0.95;;;;;;;4.04;100.00;101337.84;6251789;28;20448;-73
2023/02/02 03:24:35;;;;;;;7.00;1.58;;;;;;;4.01;100.00;101337.88;6252079;28;20045;-73
2023/02/02 03:27:37;;;;;;;10.82;1.85;;;;;;;4.05;100.00;101336.94;6252602;28;20056;-73
2023/02/02 03:30:41;;;;;;;13.80;1.42;;;;;;;4.02;100.00;101357.78;6276479;28;20128;-72
2023/02/02 03:33:44;;;;;;;9.35;1.30;;;;;;;3.97;100.00;101354.41;6276162;28;20044;-73
2023/02/02 03:36:45;;;;;;;9.98;1.45;;;;;;;3.91;100.00;101366.66;6276505;28;20057;-74
2023/02/02 03:39:47;;;;;;;9.80;1.20;;;;;;;3.87;100.00;101365.00;6276122;28;20045;-73
2023/02/02 03:42:48;;;;;;;2.45;0.90;;;;;;;3.88;100.00;101361.50;6276112;28;20052;-73
2023/02/02 03:45:55;;;;;;;6.72;1.63;;;;;;;4.02;100.00;101367.34;6275616;28;20057;-73
2023/02/02 03:48:58;;;;;;;13.93;1.45;;;;;;;4.06;100.00;101371.59;6275933;28;20056;-73
2023/02/02 03:52:00;;;;;;;3.80;0.73;;;;;;;4.07;100.00;101381.97;6276174;28;20068;-73
2023/02/02 03:55:02;;;;;;;10.18;1.05;;;;;;;4.11;100.00;101376.72;6258042;28;20095;-73
2023/02/02 03:58:03;;;;;;;9.30;1.02;;;;;;;3.95;100.00;101379.59;6251279;28;20060;-73
2023/02/02 04:01:05;;;;;;;10.80;1.63;;;;;;;3.90;100.00;101383.13;6265683;28;20052;-73
2023/02/02 04:04:08;;;;;;;12.07;1.27;;;;;;;3.88;100.00;101385.75;6276147;28;20045;-73
2023/02/02 04:07:10;;;;;;;7.82;1.65;;;;;;;3.88;100.00;101385.75;6275669;28;20099;-73
2023/02/02 04:10:11;;;;;;;13.27;1.13;;;;;;;3.90;100.00;101393.53;6275737;28;20346;-73
2023/02/02 04:13:12;;;;;;;4.28;0.82;;;;;;;3.87;100.00;101397.03;6275508;28;20052;-73
2023/02/02 04:16:14;;;;;;;10.68;1.38;;;;;;;3.84;100.00;101402.28;6275725;28;20056;-73
2023/02/02 04:19:17;;;;;;;9.85;1.40;;;;;;;3.77;100.00;101408.44;6275095;28;20053;-73
2023/02/02 04:22:18;;;;;;;9.32;1.30;;;;;;;3.75;100.00;101411.06;6274534;28;20076;-73
2023/02/02 04:25:19;;;;;;;12.93;1.45;;;;;;;3.76;100.00;101404.97;6275668;28;20048;-73
2023/02/02 04:28:22;;;;;;;9.10;0.93;;;;;;;3.78;100.00;101407.59;6275182;28;20049;-73
2023/02/02 04:31:24;;;;;;;11.98;1.20;;;;;;;3.75;100.00;101412.81;6275439;28;20340;-73
2023/02/02 04:34:26;;;;;;;13.70;1.60;;;;;;;3.77;100.00;101411.03;6275315;28;20067;-73
2023/02/02 04:37:30;;;;;;;13.23;1.50;;;;;;;3.73;100.00;101409.41;6275569;28;20049;-73
2023/02/02 04:40:31;;;;;;;9.73;0.88;;;;;;;3.67;100.00;101412.91;6275055;28;20435;-73
2023/02/02 04:43:33;;;;;;;3.08;0.90;;;;;;;3.65;100.00;101408.63;6275406;28;20044;-73
2023/02/02 04:46:35;;;;;;;9.15;2.85;;;;;;;3.73;100.00;101415.44;6259237;28;20249;-73
2023/02/02 04:49:37;;;;;;;13.55;1.13;;;;;;;3.66;100.00;101412.94;6250624;28;20050;-73
2023/02/02 04:52:39;;;;;;;14.98;2.15;;;;;;;3.71;100.00;101414.59;6250447;28;20053;-73
2023/02/02 04:55:40;;;;;;;24.80;1.92;;;;;;;3.71;100.00;101405.94;6249947;28;20427;-73
2023/02/02 04:58:41;;;;;;;8.98;0.95;;;;;;;3.67;100.00;101422.47;6250566;28;20056;-73
2023/02/02 05:01:43;;;;;;;4.50;1.00;;;;;;;3.68;100.00;101419.84;6250144;28;20053;-73
2023/02/02 05:04:46;;;;;;;9.10;1.48;;;;;;;3.64;100.00;101428.56;6250448;28;20060;-73
2023/02/02 05:07:47;;;;;;;7.13;1.02;;;;;;;3.62;100.00;101419.91;6249967;28;20052;-73
2023/02/02 05:10:49;;;;;;;13.73;1.80;;;;;;;3.64;100.00;101423.38;6250598;28;20045;-73
2023/02/02 05:13:52;;;;;;;6.00;0.82;;;;;;;3.67;100.00;101414.66;6249971;28;20092;-73
2023/02/02 05:16:53;;;;;;;6.70;1.23;;;;;;;3.75;100.00;101426.66;6251234;28;20053;-73
2023/02/02 05:19:56;;;;;;;5.88;1.15;;;;;;;3.71;100.00;101435.38;6249748;28;20069;-73
2023/02/02 05:22:57;;;;;;;7.05;1.42;;;;;;;3.72;100.00;101428.44;6250089;28;20454;-73
2023/02/02 05:25:58;;;;;;;9.32;1.05;;;;;;;3.66;100.00;101438.94;6249935;28;20045;-73
2023/02/02 05:29:00;;;;;;;9.70;1.60;;;;;;;3.70;100.00;101436.28;6249956;28;20050;-73
2023/02/02 05:32:01;;;;;;;18.05;0.95;;;;;;;3.64;100.00;101440.72;6249755;28;20356;-73
2023/02/02 05:35:04;;;;;;;15.70;2.47;;;;;;;3.75;100.00;101439.66;6250111;28;20052;-73
2023/02/02 05:38:06;;;;;;;4.78;0.98;;;;;;;3.75;100.00;101438.81;6249864;28;20591;-73
2023/02/02 05:41:07;;;;;;;5.03;1.27;;;;;;;3.74;100.00;101447.50;6253963;28;20049;-73
2023/02/02 05:44:12;;;;;;;10.10;2.28;;;;;;;3.72;100.00;101460.50;6254189;28;20046;-73
2023/02/02 05:47:13;;;;;;;18.42;2.17;;;;;;;3.63;100.00;101449.38;6268384;28;20053;-73
2023/02/02 05:50:16;;;;;;;9.40;0.63;;;;;;;3.61;100.00;101454.59;6254139;28;20469;-73
2023/02/02 05:53:18;;;;;;;10.30;1.48;;;;;;;3.64;100.00;101458.91;6253690;28;20449;-73
2023/02/02 05:56:19;;;;;;;11.15;2.05;;;;;;;3.71;100.00;101463.13;6254495;28;20425;-73
2023/02/02 05:59:20;;;;;;;9.75;2.03;;;;;;;3.70;100.00;101457.06;6253774;28;20419;-73
2023/02/02 06:02:22;;;;;;;6.55;1.35;;;;;;;3.81;100.00;101455.19;6253922;28;20054;-72
2023/02/02 06:05:24;;;;;;;16.23;1.80;;;;;;;3.74;100.00;101460.50;6253591;28;20347;-72
2023/02/02 06:08:26;;;;;;;2.45;1.00;;;;;;;3.74;100.00;101463.94;6253817;28;20064;-73
2023/02/02 06:11:27;;;;;;;7.72;1.00;;;;;;;3.74;100.00;101470.88;6253238;28;20332;-73
2023/02/02 06:14:28;;;;;;;11.27;1.33;;;;;;;3.80;100.00;101470.78;6253458;28;20045;-73
2023/02/02 06:17:30;;;;;;;6.47;1.58;;;;;;;3.87;100.00;101480.25;6253461;28;20049;-73
2023/02/02 06:20:32;;;;;;;3.17;0.50;;;;;;;3.88;100.00;101468.09;6253690;28;20045;-73
2023/02/02 06:23:34;;;;;;;9.68;2.28;;;;;;;3.85;100.00;101476.78;6255785;28;20349;-73
2023/02/02 06:26:35;;;;;;;7.55;1.10;;;;;;;3.93;100.00;101484.50;6269984;28;20041;-74
2023/02/02 06:29:36;;;;;;;4.07;1.02;;;;;;;3.86;100.00;101483.72;6277943;28;20357;-73
2023/02/02 06:32:38;;;;;;;3.97;0.90;;;;;;;3.91;100.00;101486.25;6278314;28;20056;-73
2023/02/02 06:35:41;;;;;;;3.35;1.52;;;;;;;3.90;100.00;101493.19;6277398;28;20070;-73
2023/02/02 06:38:42;;;;;;;6.22;1.02;;;;;;;3.93;100.00;101492.28;6277778;28;20049;-73
2023/02/02 06:41:45;;;;;;;11.85;1.55;;;;;;;3.93;100.00;101493.16;6272576;28;20056;-73
2023/02/02 06:44:46;;;;;;;11.43;1.92;;;;;;;3.99;100.00;101500.00;6262690;28;20064;-74
2023/02/02 06:47:47;;;;;;;3.97;1.35;;;;;;;3.99;100.00;101494.78;6265610;28;20045;-74
2023/02/02 06:50:50;;;;;;;6.93;1.33;;;;;;;3.98;100.00;101501.75;6270507;28;20045;-73
2023/02/02 06:53:52;;;;;;;7.95;1.25;;;;;;;4.00;100.00;101500.00;6265106;28;20339;-73
2023/02/02 06:56:54;;;;;;;4.68;1.05;;;;;;;4.01;100.00;101498.25;6261489;28;20446;-73
2023/02/02 06:59:55;;;;;;;8.20;1.08;;;;;;;4.07;100.00;101504.22;6265517;28;20053;-73
2023/02/02 07:02:57;;;;;;;6.43;1.02;;;;;;;4.05;100.00;101507.72;6262815;28;20084;-73
2023/02/02 07:06:09;;;;;;;1.35;0.82;;;;;;;4.08;100.00;101511.13;6262091;28;20049;-73
2023/02/02 07:09:11;;;;;;;2.35;0.70;;;;;;;4.03;100.00;101517.28;6276789;28;20348;-73
2023/02/02 07:12:12;;;;;;;6.88;1.58;;;;;;;4.01;100.00;101525.13;6268521;28;20051;-73
2023/02/02 07:15:14;;;;;;;16.08;1.70;;;;;;;4.10;100.00;101529.34;6276355;28;20059;-73
2023/02/02 07:18:15;;;;;;;4.45;1.17;;;;;;;4.02;100.00;101532.03;6256146;28;20118;-73
2023/02/02 07:21:20;;;;;;;6.18;0.85;;;;;;;4.09;100.00;101543.22;6258559;28;20053;-73
2023/02/02 07:24:22;;;;;;;11.05;0.93;;;;;;;4.05;100.00;101542.41;6254674;28;20052;-73
2023/02/02 07:27:23;;;;;;;7.15;1.40;;;;;;;4.12;100.00;101548.34;6258750;28;20048;-73
2023/02/02 07:30:28;;;;;;;10.45;1.67;;;;;;;4.19;100.00;101543.94;6275687;28;20051;-73
2023/02/02 07:33:29;;;;;;;7.88;2.20;;;;;;;4.14;100.00;101558.75;6276536;28;20067;-74
2023/02/02 07:36:33;;;;;;;10.40;2.45;;;;;;;4.16;100.00;101552.63;6267406;28;20053;-73
2023/02/02 07:39:34;;;;;;;8.25;1.60;;;;;;;4.24;100.00;101556.00;6273465;28;20060;-74
2023/02/02 07:42:36;;;;;;;6.45;1.25;;;;;;;4.30;100.00;101558.50;6276240;28;20049;-73
2023/02/02 07:45:38;;;;;;;18.65;1.35;;;;;;;4.29;100.00;101564.59;6276157;28;20037;-73
2023/02/02 07:48:40;;;;;;;5.30;1.67;;;;;;;4.30;100.00;101568.06;6256199;28;20046;-74
2023/02/02 07:51:43;;;;;;;4.70;1.05;;;;;;;4.33;100.00;101568.88;6251530;28;20049;-74
2023/02/02 07:54:45;;;;;;;17.67;3.42;;;;;;;4.42;100.00;101580.03;6250874;28;20056;-74
2023/02/02 07:57:46;;;;;;;9.43;1.92;;;;;;;4.54;100.00;101585.94;6251342;28;20371;-74
2023/02/02 08:00:48;;;;;;;0.88;0.60;;;;;;;4.57;100.00;101590.22;6260866;28;20045;-74
2023/02/02 08:03:50;;;;;;;5.30;1.00;;;;;;;4.56;100.00;101594.56;6266047;28;20049;-74
2023/02/02 08:06:53;;;;;;;2.83;0.70;;;;;;;4.57;100.00;101603.22;6275451;28;20064;-74
2023/02/02 08:09:54;;;;;;;3.00;0.95;;;;;;;4.56;100.00;101606.72;6267342;28;20053;-74
2023/02/02 08:12:55;;;;;;;6.25;1.13;;;;;;;4.58;100.00;101608.41;6262705;28;20455;-74
2023/02/02 08:15:57;;;;;;;8.82;2.38;;;;;;;4.60;100.00;101612.75;6275353;28;20355;-74
2023/02/02 08:18:59;;;;;;;13.32;1.52;;;;;;;4.56;100.00;101615.38;6264126;28;20378;-74
2023/02/02 08:22:01;;;;;;;2.17;0.82;;;;;;;4.67;100.00;101622.19;6275723;28;20060;-76
2023/02/02 08:25:03;;;;;;;1.35;0.60;;;;;;;4.71;100.00;101618.66;6275364;28;20076;-73
2023/02/02 08:28:04;;;;;;;6.82;1.20;;;;;;;4.69;100.00;101623.03;6274180;28;20045;-74
2023/02/02 08:31:08;;;;;;;5.40;0.70;;;;;;;4.75;100.00;101628.13;6269817;28;20501;-74
2023/02/02 08:34:10;;;;;;;2.60;0.60;;;;;;;4.69;100.00;101623.88;6261938;28;20179;-74
2023/02/02 08:37:12;;;;;;;4.00;0.93;;;;;;;4.73;100.00;101616.91;6275318;28;20049;-74
2023/02/02 08:40:14;;;;;;;2.13;0.98;;;;;;;4.76;100.00;101637.66;6275067;28;20048;-75
2023/02/02 08:43:16;;;;;;;10.95;1.55;;;;;;;4.73;100.00;101637.72;6270358;28;20050;-73
2023/02/02 08:46:19;;;;;;;3.50;0.98;;;;;;;4.80;100.00;101634.97;6268002;28;20359;-73
2023/02/02 08:49:21;;;;;;;2.28;0.63;;;;;;;4.82;100.00;101645.41;6268812;28;20108;-73
2023/02/02 08:52:24;;;;;;;8.13;1.50;;;;;;;4.82;100.00;101648.88;6275019;28;20076;-74
2023/02/02 08:55:25;;;;;;;9.23;0.77;;;;;;;4.85;100.00;101655.75;6274784;28;20343;-73
2023/02/02 08:58:27;;;;;;;9.27;0.90;;;;;;;4.82;100.00;101648.88;6274588;28;20048;-73
2023/02/02 09:01:30;;;;;;;3.60;0.50;;;;;;;4.86;100.00;101647.06;6271942;28;20069;-73
2023/02/02 09:04:31;;;;;;;7.30;1.10;;;;;;;4.89;100.00;101653.97;6274622;28;20053;-73
2023/02/02 09:07:34;;;;;;;11.35;1.20;;;;;;;4.87;100.00;101664.41;6267770;28;20052;-72
2023/02/02 09:10:36;;;;;;;8.77;0.50;;;;;;;4.98;100.00;101664.25;6266280;28;20448;-73
2023/02/02 09:13:39;;;;;;;8.82;0.85;;;;;;;4.94;100.00;101671.25;6273149;28;20439;-73
2023/02/02 09:16:41;;;;;;;2.03;0.75;;;;;;;4.95;100.00;101680.78;6279533;28;20132;-73
2023/02/02 09:19:42;;;;;;;3.97;0.50;;;;;;;5.03;100.00;101680.66;6266324;28;20103;-73
2023/02/02 09:22:45;;;;;;;2.22;0.73;;;;;;;5.03;100.00;101680.66;6254740;28;20082;-73
2023/02/02 09:25:47;;;;;;;6.07;0.55;;;;;;;4.99;100.00;101695.47;6254968;28;20048;-73
2023/02/02 09:28:49;;;;;;;4.53;1.38;;;;;;;4.95;100.00;101687.72;6254560;28;20184;-73
2023/02/02 09:31:51;;;;;;;11.50;0.88;;;;;;;4.98;100.00;101701.56;6254688;28;20049;-73
2023/02/02 09:34:52;;;;;;;4.85;0.50;;;;;;;5.02;100.00;101703.25;6255739;28;20046;-74
2023/02/02 09:37:55;;;;;;;1.60;0.70;;;;;;;5.11;100.00;101704.00;6269356;28;20072;-73
2023/02/02 09:40:56;;;;;;;0.98;0.68;;;;;;;5.12;100.00;101700.50;6254003;28;20060;-72
2023/02/02 09:44:08;;;;;;;0.47;0.32;;;;;;;5.21;100.00;101700.34;6261593;28;20051;-73
2023/02/02 09:47:17;;;;;;;3.28;0.80;;;;;;;5.24;100.00;101711.59;6275005;28;20064;-73
2023/02/02 09:50:28;;;;;;;6.90;0.82;;;;;;;5.27;100.00;101714.16;6274639;28;20049;-73
2023/02/02 09:53:45;;;;;;;3.20;1.17;;;;;;;5.26;100.00;101716.78;6270060;28;20056;-72
2023/02/02 09:56:53;;;;;;;2.25;0.70;;;;;;;5.25;100.00;101723.72;6260863;28;20129;-73
2023/02/02 09:59:55;;;;;;;4.25;1.02;;;;;;;5.31;100.00;101717.56;6264402;28;20045;-75
2023/02/02 10:03:01;;;;;;;1.52;0.43;;;;;;;5.36;100.00;101718.38;6278878;28;20056;-74
2023/02/02 10:06:07;;;;;;;4.07;0.90;;;;;;;5.38;100.00;101721.81;6278262;28;20045;-73
2023/02/02 10:09:25;;;;;;;8.93;0.88;;;;;;;5.42;100.00;101733.91;6265532;28;20056;-73
2023/02/02 10:12:34;;;;;;;5.15;0.60;;;;;;;5.45;100.00;101733.88;6253576;28;20384;-73
2023/02/02 10:15:39;;;;;;;7.85;0.68;;;;;;;5.52;100.00;101729.41;6253345;28;20056;-72
2023/02/02 10:18:47;;;;;;;1.38;0.60;;;;;;;5.53;100.00;101741.53;6253782;28;20042;-71
2023/02/02 10:21:54;;;;;;;2.90;0.80;;;;;;;5.57;100.00;101753.63;6254267;28;20057;-73
2023/02/02 10:24:58;;;;;;;3.17;0.65;;;;;;;5.56;100.00;101742.34;6253478;28;20041;-72
2023/02/02 10:28:05;;;;;;;1.73;0.60;;;;;;;5.67;100.00;101743.91;6274851;28;20049;-76
2023/02/02 10:31:17;;;;;;;5.78;0.80;;;;;;;5.67;100.00;101764.78;6277903;28;20375;-73
2023/02/02 10:34:25;;;;;;;1.17;0.55;;;;;;;5.62;100.00;101759.63;6277555;28;20593;-73
2023/02/02 10:37:34;;;;;;;9.87;1.03;;;;;;;5.66;100.00;101766.53;6264430;28;20049;-71
2023/02/02 10:40:46;;;;;;;4.38;0.82;;;;;;;5.67;100.00;101767.38;6277424;28;20294;-72
2023/02/02 10:44:02;;;;;;;3.72;0.60;;;;;;;5.70;100.00;101764.72;6277419;28;20325;-72
2023/02/02 10:47:08;;;;;;;4.53;1.20;;;;;;;5.80;100.00;101759.31;6277244;28;20351;-72
2023/02/02 10:50:18;;;;;;;4.38;0.60;;;;;;;5.74;100.00;101769.00;6272992;28;20049;-72
2023/02/02 10:53:20;;;;;;;8.55;0.82;;;;;;;5.79;100.00;101773.25;6252654;28;20443;-72
2023/02/02 10:56:29;;;;;;;3.28;0.98;;;;;;;5.76;100.00;101777.66;6252490;28;20046;-75
2023/02/02 10:59:32;;;;;;;3.95;1.20;;;;;;;5.82;100.00;101782.78;6259573;28;20041;-73
2023/02/02 11:02:34;;;;;;;3.83;0.73;;;;;;;5.89;100.00;101789.59;6262911;28;20044;-72
2023/02/02 11:08:58;;;;;;;;;;;;;;;5.85;100.00;101795.75;6277266;28;20053;-73
2023/02/02 11:12:05;;;;;;;2.05;0.77;;;;;;;5.87;100.00;101786.19;6257224;28;19921;-72
2023/02/02 11:15:21;;;;;;;5.68;0.95;;;;;;;5.89;100.00;101804.41;6252087;28;20057;-74
2023/02/02 11:18:30;;;;;;;2.28;0.55;;;;;;;5.90;100.00;101793.06;6253528;28;20049;-72
2023/02/02 11:21:33;;;;;;;9.70;1.30;;;;;;;5.92;100.00;101797.44;6263051;28;20061;-73
2023/02/02 11:24:44;;;;;;;10.45;1.52;;;;;;;5.95;100.00;101802.59;6273969;28;20068;-73
2023/02/02 11:27:47;;;;;;;6.25;1.08;;;;;;;5.93;100.00;101796.53;6268081;28;20048;-73
2023/02/02 11:30:51;;;;;;;7.45;0.77;;;;;;;5.96;100.00;101799.09;6276111;28;20089;-72
2023/02/02 11:33:52;;;;;;;6.75;1.10;;;;;;;5.99;100.00;101798.16;6276604;28;20056;-73
2023/02/02 11:37:02;;;;;;;3.47;1.02;;;;;;;6.08;100.00;101793.66;6256888;28;20045;-73
2023/02/02 11:40:24;;;;;;;2.58;0.60;;;;;;;6.07;100.00;101788.47;6251577;28;20049;-72
2023/02/02 11:43:30;;;;;;;2.00;0.65;;;;;;;6.09;100.00;101797.16;6251058;28;20049;-73
2023/02/02 11:46:33;;;;;;;4.57;0.80;;;;;;;6.13;100.00;101801.38;6261526;28;20071;-73
2023/02/02 11:49:41;;;;;;;10.52;1.30;;;;;;;6.20;100.00;101792.56;6274663;28;20068;-73
2023/02/02 11:52:45;;;;;;;12.20;1.02;;;;;;;6.22;100.00;101800.38;6275473;28;20126;-73
2023/02/02 11:55:47;;;;;;;3.15;0.95;;;;;;;6.29;100.00;101804.59;6275304;28;20041;-72
2023/02/02 11:58:51;;;;;;;8.55;1.17;;;;;;;6.38;100.00;101800.97;6276083;28;20059;-73
2023/02/02 12:02:20;;;;;;;14.82;1.33;;;;;;;6.29;100.00;101810.69;6269072;28;20068;-72
2023/02/02 12:05:37;;;;;;;4.63;2.08;;;;;;;6.36;100.00;101814.06;6267871;28;20427;-72
2023/02/02 12:08:38;;;;;;;1.75;0.80;;;;;;;6.36;100.00;101803.59;6274856;28;20049;-72
2023/02/02 12:11:51;;;;;;;3.45;1.42;;;;;;;6.39;100.00;101811.34;6259782;28;20045;-72
2023/02/02 12:15:01;;;;;;;2.78;0.63;;;;;;;6.40;100.00;101817.44;6267652;28;20045;-72
2023/02/02 12:18:15;;;;;;;7.13;1.48;;;;;;;6.41;100.00;101809.59;6264029;28;20049;-71
2023/02/02 12:21:25;;;;;;;3.33;0.80;;;;;;;6.52;100.00;101810.25;6263194;28;20056;-71
2023/02/02 12:24:35;;;;;;;7.68;1.55;;;;;;;6.51;100.00;101821.59;6271523;28;20045;-71
2023/02/02 12:27:44;;;;;;;6.35;1.13;;;;;;;6.53;100.00;101814.56;6265852;28;20447;-72
2023/02/02 12:30:57;;;;;;;18.85;1.77;;;;;;;6.64;100.00;101813.50;6262935;28;20045;-73
2023/02/02 12:34:07;;;;;;;2.63;0.68;;;;;;;6.57;100.00;101812.75;6259791;28;20053;-71
2023/02/02 12:37:21;;;;;;;11.88;1.42;;;;;;;6.60;100.00;101804.88;6263299;28;20348;-72
2023/02/02 12:40:38;;;;;;;11.00;1.27;;;;;;;6.60;100.00;101810.97;6270712;28;20351;-73
2023/02/02 12:43:42;;;;;;;3.00;1.23;;;;;;;6.62;100.00;101808.31;6265897;28;20182;-73
2023/02/02 12:46:56;;;;;;;5.28;1.10;;;;;;;6.55;100.00;101809.34;6254044;28;20045;-73
2023/02/02 12:50:22;;;;;;;5.75;0.77;;;;;;;6.56;100.00;101806.69;6267498;28;20052;-73
2023/02/02 12:53:37;;;;;;;8.68;1.52;;;;;;;6.60;100.00;101810.09;6271197;28;20049;-73
2023/02/02 12:56:45;;;;;;;3.65;0.80;;;;;;;6.56;100.00;101800.59;6270740;28;20370;-73
2023/02/02 13:00:01;;;;;;;3.30;0.98;;;;;;;6.50;100.00;101811.19;6273231;28;20076;-72
2023/02/02 13:03:17;;;;;;;10.10;1.52;;;;;;;6.52;100.00;101810.25;6271711;28;20045;-73
2023/02/02 13:06:37;;;;;;;3.33;1.27;;;;;;;6.55;100.00;101811.94;6270260;28;20044;-72
2023/02/02 13:09:46;;;;;;;4.78;1.15;;;;;;;6.57;100.00;101807.53;6270890;28;20064;-73
2023/02/02 13:12:53;;;;;;;5.93;1.45;;;;;;;6.61;100.00;101809.19;6267776;28;20065;-71
2023/02/02 13:15:59;;;;;;;4.70;1.65;;;;;;;6.61;100.00;101801.38;6264290;28;20040;-71
2023/02/02 13:19:06;;;;;;;3.97;1.67;;;;;;;6.59;100.00;101805.78;6267574;28;20049;-72
2023/02/02 13:22:15;;;;;;;9.50;1.23;;;;;;;6.79;100.00;101808.81;6271095;28;20041;-70
2023/02/02 13:25:22;;;;;;;4.50;1.67;;;;;;;6.92;100.00;101809.44;6266725;28;20045;-71
2023/02/02 13:28:36;;;;;;;9.38;1.77;;;;;;;6.98;100.00;101814.53;6267934;28;20041;-71
2023/02/02 13:31:43;;;;;;;11.68;1.70;;;;;;;7.03;100.00;101815.28;6265537;28;20351;-71
2023/02/02 13:34:51;;;;;;;5.75;1.42;;;;;;;7.08;100.00;101817.78;6264830;28;20355;-72
2023/02/02 13:38:01;;;;;;;14.00;1.27;;;;;;;7.06;100.00;101823.06;6266857;28;20049;-71
2023/02/02 13:41:08;;;;;;;5.45;1.15;;;;;;;7.04;100.00;101817.03;6265851;28;20045;-72
2023/02/02 13:44:17;;;;;;;3.33;1.10;;;;;;;7.04;100.00;101819.66;6267507;28;20371;-72
2023/02/02 13:47:25;;;;;;;17.40;1.83;;;;;;;6.99;100.00;101820.59;6266803;28;20049;-71
2023/02/02 13:50:33;;;;;;;7.38;1.65;;;;;;;7.03;100.00;101822.25;6261353;28;20049;-72
2023/02/02 13:53:49;;;;;;;6.38;1.40;;;;;;;7.14;100.00;101817.69;6261105;28;20045;-72
2023/02/02 13:56:58;;;;;;;5.50;1.70;;;;;;;7.16;100.00;101817.63;6269870;28;20045;-71
2023/02/02 14:00:12;;;;;;;5.35;1.58;;;;;;;7.17;100.00;101827.19;6268788;28;20060;-72
2023/02/02 14:03:37;;;;;;;10.40;1.42;;;;;;;7.13;100.00;101836.88;6260522;28;20048;-72
2023/02/02 14:06:55;;;;;;;11.02;1.90;;;;;;;7.12;100.00;101838.59;6270248;28;20045;-71
2023/02/02 14:09:57;;;;;;;3.80;1.42;;;;;;;7.11;100.00;101833.41;6269509;28;20136;-71
2023/02/02 14:14:30;;;;;;;6.38;1.80;;;;;;;7.18;100.00;101842.88;6272037;28;20443;-71
2023/02/02 14:16:46;;;;;;;2.97;1.48;;;;;;;7.10;100.00;101847.41;6262000;28;20050;-71
2023/02/02 14:19:50;;;;;;;9.57;1.73;;;;;;;6.97;100.00;101851.16;6266188;28;20049;-71
2023/02/02 14:22:53;;;;;;;3.90;1.50;;;;;;;7.08;100.00;101855.25;6264016;28;20060;-72
2023/02/02 14:26:06;;;;;;;5.22;1.80;;;;;;;7.04;100.00;101858.84;6255932;28;20045;-72
2023/02/02 14:29:57;;;;;;;2.80;2.00;;;;;;;6.98;100.00;101865.94;6270385;28;20041;-71
2023/02/02 14:33:24;;;;;;;9.18;2.33;;;;;;;6.89;100.00;101860.91;6202100;28;20050;-71